Terminal Aerodrome Forecast
Issued by NWS

Home | Current Version | Previous Version | Text Only | Print | Product List | Glossary On
Versions: 1 2 3 4 5 6 7 8 9 10 11 12 13 14 15
000
FTUS45 KRIW 222320
TAFRKS
TAF
KRKS 222320Z 2300/2324 29024G34KT P6SM SKC
     FM230230 34011KT P6SM SKC
     FM230500 05014KT P6SM SKC WS010/06030KT
     FM231000 06008KT P6SM SKC
     FM231800 35006KT P6SM SKC
     FM232000 30010G20KT P6SM SCT110=

USA.gov is the U.S. government's official web portal to all federal, state and local government web resources and services.